< Cyclone 196337 1963 Season Cyclone 196402 >
Cyclone 196338 (unnamed)
General InformationTrack Information on Google Maps || ResourceGoogle EarthGE AnimationAtom FeedGeoJSON
Detalied Best Track (Time Zone = UTC)
Year Month Day Hour Lat. Long. Pressure (hPa) Wind (kt) Class Image Chart
1963 6 23 05 -18.9 159.3 1001 0 6 -- --
1963 6 23 11 -20.1 159.0 1005 0 6 -- --
1963 6 23 17 -20.7 158.6 1004 0 6 -- --
1963 6 23 23 -21.2 158.4 1003 0 6 -- --
1963 6 24 05 -21.5 158.4 1004 0 6 -- --
1963 6 24 11 -21.9 158.4 1005 0 6 -- --
1963 6 24 17 -22.3 158.4 1006 0 6 -- --
1963 6 24 23 -22.7 158.4 1006 0 6 -- --
1963 6 25 05 -23.4 158.6 1006 0 6 -- --
1963 6 25 11 -24.2 159.4 1007 0 6 -- --
1963 6 25 17 -24.7 160.6 1007 0 6 -- --
1963 6 25 23 -25.0 162.0 1005 0 6 -- --
1963 6 26 05 -25.7 163.4 1000 0 6 -- --
1963 6 26 11 -26.7 163.4 1002 0 6 -- --
1963 6 26 17 -27.3 163.0 1001 0 6 -- --
1963 6 26 23 -27.7 162.8 1001 0 6 -- --
1963 6 27 05 -28.4 163.0 1000 0 6 -- --
1963 6 27 11 -29.3 163.6 1000 0 6 -- --
1963 6 27 17 -29.9 164.0 1002 0 6 -- --
1963 6 27 23 -30.5 164.0 1003 0 6 -- --
1963 6 28 05 -30.8 163.8 1004 0 6 -- --
1963 6 28 17 -31.0 163.2 1008 0 6 -- --
1963 6 28 23 -30.9 162.8 1009 0 6 -- --
1963 6 29 05 -30.7 162.3 1008 0 6 -- --
1963 6 29 11 -30.4 161.8 1006 0 6 -- --
1963 6 29 17 -29.7 161.4 1005 0 6 -- --
1963 6 29 23 -29.0 161.4 1003 0 6 -- --
1963 6 30 05 -28.6 161.4 1002 0 6 -- --
1963 6 30 11 -28.4 161.7 1002 0 6 -- --
1963 6 30 17 -28.3 162.0 1002 0 6 -- --
1963 6 30 23 -28.6 163.0 1000 0 6 -- --
1963 7 1 05 -29.0 164.0 997 0 6 -- --
1963 7 2 05 -30.7 167.2 993 0 6 -- --
1963 7 2 11 -31.5 167.4 991 0 6 -- --
1963 7 2 17 -32.4 167.6 988 0 6 -- --
1963 7 2 23 -33.4 167.8 987 0 6 -- --
1963 7 3 05 -34.3 168.1 986 0 6 -- --
1963 7 3 11 -35.1 168.4 988 0 6 -- --
1963 7 3 17 -35.9 168.7 990 0 6 -- --
1963 7 3 23 -36.6 169.1 994 0 6 -- --
< Cyclone 196337 1963 Season Cyclone 196402 >

Help